createdAt,value
2023-05-23T00:01:55.233Z,11.65
2023-05-23T00:04:22.108Z,11.79
2023-05-23T00:06:50.553Z,11.78
2023-05-23T00:09:17.321Z,11.84
2023-05-23T00:11:45.228Z,11.83
2023-05-23T00:14:13.651Z,11.87
2023-05-23T00:16:41.500Z,11.73
2023-05-23T00:19:09.506Z,11.81
2023-05-23T00:21:36.235Z,11.90
2023-05-23T00:24:02.779Z,12.04
2023-05-23T00:26:32.154Z,12.07
2023-05-23T00:28:58.853Z,12.19
2023-05-23T00:31:25.467Z,12.27
2023-05-23T00:33:52.033Z,12.23
2023-05-23T00:36:19.017Z,12.27
2023-05-23T00:38:49.367Z,12.51
2023-05-23T00:41:16.276Z,12.48
2023-05-23T00:43:42.989Z,12.35
2023-05-23T00:46:10.606Z,12.02
2023-05-23T00:48:38.613Z,12.07
2023-05-23T00:51:05.519Z,11.79
2023-05-23T00:53:32.043Z,11.88
2023-05-23T00:55:58.577Z,11.84
2023-05-23T00:58:25.165Z,11.82
2023-05-23T01:00:54.394Z,11.90
2023-05-23T01:03:21.140Z,11.76
2023-05-23T01:05:47.853Z,11.79
2023-05-23T01:08:15.815Z,11.92
2023-05-23T01:10:42.552Z,11.78
2023-05-23T01:13:22.227Z,11.64
2023-05-23T01:16:13.717Z,11.77
2023-05-23T01:18:47.658Z,11.86
2023-05-23T01:21:17.944Z,11.93
2023-05-23T01:24:06.122Z,11.85
2023-05-23T01:27:05.347Z,11.95
2023-05-23T01:29:38.074Z,12.09
2023-05-23T01:32:06.633Z,11.87
2023-05-23T01:34:34.466Z,11.75
2023-05-23T01:37:01.003Z,11.90
2023-05-23T01:39:27.551Z,12.20
2023-05-23T01:41:54.051Z,11.98
2023-05-23T01:44:21.406Z,12.11
2023-05-23T01:46:48.058Z,12.16
2023-05-23T01:49:14.675Z,12.10
2023-05-23T01:51:41.271Z,11.87
2023-05-23T01:54:07.794Z,12.10
2023-05-23T01:56:34.473Z,12.37
2023-05-23T01:59:02.018Z,12.38
2023-05-23T02:01:28.583Z,12.36
2023-05-23T02:03:55.572Z,12.45
2023-05-23T02:06:22.105Z,12.24
2023-05-23T02:08:48.592Z,12.33
2023-05-23T02:11:15.985Z,12.34
2023-05-23T02:13:42.532Z,12.02
2023-05-23T02:16:09.106Z,12.15
2023-05-23T02:18:38.250Z,12.27
2023-05-23T02:21:06.029Z,12.58
2023-05-23T02:23:32.701Z,12.80
2023-05-23T02:25:59.251Z,12.96
2023-05-23T02:28:25.994Z,12.67
2023-05-23T02:30:52.587Z,12.68
2023-05-23T02:33:19.741Z,12.24
2023-05-23T02:35:46.420Z,12.20
2023-05-23T02:38:13.035Z,12.09
2023-05-23T02:40:39.534Z,12.05
2023-05-23T02:43:06.063Z,11.97
2023-05-23T02:45:32.785Z,12.14
2023-05-23T02:47:59.337Z,12.13
2023-05-23T02:50:26.167Z,12.38
2023-05-23T02:52:52.706Z,12.25
2023-05-23T02:55:19.300Z,12.32
2023-05-23T02:57:46.163Z,12.17
2023-05-23T03:00:13.357Z,12.20
2023-05-23T03:02:39.956Z,12.38
2023-05-23T03:05:07.116Z,12.30
2023-05-23T03:07:33.917Z,12.28
2023-05-23T03:10:01.214Z,12.55
2023-05-23T03:12:30.591Z,12.87
2023-05-23T03:14:57.089Z,12.99
2023-05-23T03:17:25.514Z,12.64
2023-05-23T03:19:52.058Z,12.40
2023-05-23T03:22:18.571Z,12.30
2023-05-23T03:24:45.075Z,12.28
2023-05-23T03:27:11.660Z,12.34
2023-05-23T03:29:38.268Z,12.42
2023-05-23T03:32:05.109Z,12.39
2023-05-23T03:34:33.103Z,12.19
2023-05-23T03:37:00.020Z,12.28
2023-05-23T03:39:26.585Z,12.18
2023-05-23T03:41:53.317Z,12.28
2023-05-23T03:44:19.987Z,12.25
2023-05-23T03:46:46.484Z,12.20
2023-05-23T03:49:13.265Z,12.23
2023-05-23T03:51:39.766Z,12.18
2023-05-23T03:54:06.480Z,12.18
2023-05-23T03:56:33.241Z,12.06
2023-05-23T03:59:00.032Z,12.11
2023-05-23T04:01:27.745Z,12.02
2023-05-23T04:03:54.714Z,12.28
2023-05-23T04:06:22.759Z,12.45
2023-05-23T04:08:49.268Z,12.58
2023-05-23T04:11:15.873Z,12.70
2023-05-23T04:13:42.752Z,12.66
2023-05-23T04:16:09.356Z,12.69
2023-05-23T04:18:39.132Z,12.84
2023-05-23T04:21:05.804Z,12.93
2023-05-23T04:23:32.387Z,13.02
2023-05-23T04:25:59.374Z,12.95
2023-05-23T04:28:28.823Z,12.92
2023-05-23T04:30:56.356Z,12.93
2023-05-23T04:33:23.074Z,13.12
2023-05-23T04:35:49.710Z,13.32
2023-05-23T04:38:17.142Z,13.43
2023-05-23T04:40:43.773Z,13.44
2023-05-23T04:43:14.217Z,13.27
2023-05-23T04:45:41.694Z,13.22
2023-05-23T04:48:08.676Z,13.10
2023-05-23T04:50:35.935Z,13.28
2023-05-23T04:53:02.455Z,13.39
2023-05-23T04:55:29.342Z,13.55
2023-05-23T04:57:56.276Z,13.62
2023-05-23T05:00:22.786Z,13.80
2023-05-23T05:02:49.435Z,14.09
2023-05-23T05:05:16.080Z,14.32
2023-05-23T05:07:42.592Z,14.52
2023-05-23T05:10:16.805Z,14.71
2023-05-23T05:12:46.947Z,14.84
2023-05-23T05:15:13.700Z,14.74
2023-05-23T05:17:40.756Z,14.90
2023-05-23T05:20:08.673Z,15.09
2023-05-23T05:22:36.463Z,15.33
2023-05-23T05:25:03.809Z,15.54
2023-05-23T05:27:30.326Z,15.74
2023-05-23T05:30:04.614Z,16.01
2023-05-23T05:32:33.699Z,16.36
2023-05-23T05:35:00.952Z,16.66
2023-05-23T05:37:27.868Z,16.75
2023-05-23T05:39:55.010Z,16.91
2023-05-23T05:42:22.055Z,17.01
2023-05-23T05:44:49.064Z,17.03
2023-05-23T05:47:15.787Z,16.87
2023-05-23T05:49:42.313Z,16.93
2023-05-23T05:52:08.894Z,17.00
2023-05-23T05:54:36.133Z,17.11
2023-05-23T05:57:02.728Z,17.15
2023-05-23T05:59:31.125Z,17.15
2023-05-23T06:01:58.981Z,17.15
2023-05-23T06:04:25.565Z,17.19
2023-05-23T06:06:52.194Z,17.22
2023-05-23T06:09:18.750Z,17.35
2023-05-23T06:11:45.329Z,17.57
2023-05-23T06:14:11.950Z,17.43
2023-05-23T06:16:38.963Z,17.57
2023-05-23T06:19:06.163Z,17.55
2023-05-23T06:21:33.158Z,17.76
2023-05-23T06:23:59.670Z,17.93
2023-05-23T06:26:26.869Z,17.92
2023-05-23T06:28:53.471Z,17.99
2023-05-23T06:31:20.054Z,18.19
2023-05-23T06:33:46.615Z,18.19
2023-05-23T06:36:13.188Z,18.29
2023-05-23T06:38:39.730Z,18.30
2023-05-23T06:41:07.293Z,18.63
2023-05-23T06:43:33.976Z,18.98
2023-05-23T06:46:00.598Z,19.05
2023-05-23T06:48:27.111Z,19.14
2023-05-23T06:50:53.678Z,19.11
2023-05-23T06:53:20.250Z,19.33
2023-05-23T06:55:47.112Z,19.43
2023-05-23T06:58:14.672Z,19.45
2023-05-23T07:00:41.379Z,19.46
2023-05-23T07:03:08.210Z,19.40
2023-05-23T07:05:37.399Z,19.44
2023-05-23T07:08:07.303Z,19.53
2023-05-23T07:10:35.245Z,19.77
2023-05-23T07:13:01.828Z,19.72
2023-05-23T07:15:28.395Z,19.33
2023-05-23T07:17:54.983Z,19.49
2023-05-23T07:20:21.937Z,19.11
2023-05-23T07:22:48.483Z,19.21
2023-05-23T07:25:15.057Z,18.98
2023-05-23T07:27:41.642Z,18.77
2023-05-23T07:30:09.809Z,18.50
2023-05-23T07:32:36.717Z,18.99
2023-05-23T07:35:03.370Z,19.36
2023-05-23T07:37:29.886Z,19.18
2023-05-23T07:39:56.390Z,19.19
2023-05-23T07:42:22.947Z,19.11
2023-05-23T07:44:49.469Z,19.85
2023-05-23T07:47:16.028Z,20.05
2023-05-23T07:49:42.642Z,19.77
2023-05-23T07:52:09.193Z,19.96
2023-05-23T07:54:35.769Z,19.79
2023-05-23T07:57:02.385Z,19.26
2023-05-23T07:59:30.116Z,19.45
2023-05-23T08:01:56.729Z,19.44
2023-05-23T08:04:23.350Z,19.58
2023-05-23T08:07:04.494Z,19.75
2023-05-23T08:09:31.889Z,19.79
2023-05-23T08:11:58.436Z,19.99
2023-05-23T08:14:29.430Z,20.20
2023-05-23T08:17:05.221Z,19.71
2023-05-23T08:19:32.267Z,19.98
2023-05-23T08:21:58.881Z,19.81
2023-05-23T08:24:25.615Z,20.35
2023-05-23T08:26:52.141Z,19.45
2023-05-23T08:29:18.728Z,19.55
2023-05-23T08:31:45.368Z,19.37
2023-05-23T08:34:12.451Z,19.57
2023-05-23T08:36:39.940Z,19.89
2023-05-23T08:39:06.891Z,19.65
2023-05-23T08:41:33.525Z,19.81
2023-05-23T08:44:00.047Z,20.09
2023-05-23T08:46:27.327Z,20.37
2023-05-23T08:48:54.894Z,20.20
2023-05-23T08:51:23.928Z,20.17
2023-05-23T08:53:53.012Z,20.11
2023-05-23T08:56:20.018Z,20.37
2023-05-23T08:58:47.653Z,20.63
2023-05-23T09:01:14.666Z,20.69
2023-05-23T09:03:44.370Z,20.46
2023-05-23T09:06:11.074Z,21.03
2023-05-23T09:08:37.785Z,21.19
2023-05-23T09:11:05.968Z,20.80
2023-05-23T09:13:33.025Z,20.80
2023-05-23T09:16:02.406Z,20.49
2023-05-23T09:18:42.368Z,21.09
2023-05-23T09:21:09.735Z,21.32
2023-05-23T09:23:36.992Z,20.86
2023-05-23T09:26:07.825Z,20.84
2023-05-23T09:28:34.828Z,21.25
2023-05-23T09:31:05.302Z,21.26
2023-05-23T09:33:47.861Z,20.85
2023-05-23T09:36:14.244Z,21.04
2023-05-23T09:38:41.702Z,21.16
2023-05-23T09:41:08.306Z,21.53
2023-05-23T09:43:34.922Z,21.27
2023-05-23T09:46:09.337Z,21.65
2023-05-23T09:48:36.026Z,20.32
2023-05-23T09:51:09.108Z,20.57
2023-05-23T09:53:35.917Z,20.27
2023-05-23T09:56:03.063Z,20.34
2023-05-23T09:58:32.629Z,20.22
2023-05-23T10:01:03.797Z,20.71
2023-05-23T10:03:35.643Z,20.61
2023-05-23T10:06:10.695Z,20.20
2023-05-23T10:08:39.474Z,20.31
2023-05-23T10:11:16.474Z,20.50
2023-05-23T10:13:47.168Z,20.58
2023-05-23T10:16:55.213Z,20.79
2023-05-23T10:19:28.090Z,20.58
2023-05-23T10:21:59.484Z,20.31
2023-05-23T10:24:27.385Z,20.77
2023-05-23T10:26:55.216Z,20.54
2023-05-23T10:29:25.172Z,21.00
2023-05-23T10:31:52.133Z,20.76
2023-05-23T10:34:48.069Z,21.25
2023-05-23T10:37:21.198Z,20.94
2023-05-23T10:40:08.221Z,20.60
2023-05-23T10:42:52.179Z,20.23
2023-05-23T10:45:22.478Z,20.31
2023-05-23T10:47:51.146Z,20.81
2023-05-23T10:50:32.156Z,20.75
2023-05-23T10:53:00.221Z,20.76
2023-05-23T10:55:28.057Z,20.60
2023-05-23T10:58:30.526Z,20.59
2023-05-23T11:00:59.682Z,20.40
2023-05-23T11:03:49.840Z,20.07
2023-05-23T11:06:44.400Z,20.32
2023-05-23T11:09:19.319Z,20.50
2023-05-23T11:11:52.369Z,20.20
2023-05-23T11:14:19.451Z,20.47
2023-05-23T11:16:47.265Z,21.29
2023-05-23T11:19:23.173Z,21.28
2023-05-23T11:22:00.208Z,21.58
2023-05-23T11:24:52.526Z,21.36
2023-05-23T11:27:32.027Z,20.74
2023-05-23T11:29:59.105Z,21.42
2023-05-23T11:32:28.136Z,22.06
2023-05-23T11:34:54.711Z,21.88
2023-05-23T11:37:21.340Z,21.40
2023-05-23T11:39:47.850Z,21.71
2023-05-23T11:42:14.363Z,21.03
2023-05-23T11:44:40.917Z,20.80
2023-05-23T11:47:08.369Z,20.64
2023-05-23T11:49:36.397Z,21.04
2023-05-23T11:52:03.150Z,20.99
2023-05-23T11:54:29.723Z,21.10
2023-05-23T11:56:56.296Z,21.01
2023-05-23T11:59:26.223Z,21.93
2023-05-23T12:01:53.075Z,21.12
2023-05-23T12:04:19.684Z,21.79
2023-05-23T12:06:47.312Z,21.43
2023-05-23T12:09:14.086Z,20.57
2023-05-23T12:11:41.195Z,20.48
2023-05-23T12:14:08.506Z,21.26
2023-05-23T12:16:36.114Z,21.66
2023-05-23T12:19:04.834Z,22.21
2023-05-23T12:21:41.849Z,22.02
2023-05-23T12:24:21.400Z,22.33
2023-05-23T12:26:49.132Z,22.88
2023-05-23T12:29:16.491Z,22.47
2023-05-23T12:31:43.046Z,22.98
2023-05-23T12:34:10.857Z,22.90
2023-05-23T12:36:48.040Z,22.00
2023-05-23T12:39:15.921Z,22.31
2023-05-23T12:41:43.500Z,21.96
2023-05-23T12:44:10.074Z,22.34
2023-05-23T12:46:37.103Z,23.19
2023-05-23T12:49:03.828Z,22.36
2023-05-23T12:51:30.650Z,22.53
2023-05-23T12:53:57.265Z,23.60
2023-05-23T12:56:23.863Z,23.83
2023-05-23T12:58:50.488Z,22.81
2023-05-23T13:01:17.152Z,23.05
2023-05-23T13:03:43.725Z,22.04
2023-05-23T13:06:10.307Z,22.55
2023-05-23T13:08:37.162Z,22.48
2023-05-23T13:11:03.918Z,23.04
2023-05-23T13:13:30.568Z,22.90
2023-05-23T13:15:57.228Z,23.18
2023-05-23T13:18:23.895Z,23.36
2023-05-23T13:20:50.497Z,22.93
2023-05-23T13:23:17.063Z,23.12
2023-05-23T13:25:43.766Z,23.40
2023-05-23T13:28:10.566Z,23.70
2023-05-23T13:30:37.153Z,24.68
2023-05-23T13:33:03.809Z,22.90
2023-05-23T13:35:30.455Z,23.04
2023-05-23T13:37:57.350Z,22.81
2023-05-23T13:40:23.959Z,22.37
2023-05-23T13:42:51.285Z,22.79
2023-05-23T13:45:18.918Z,22.73
2023-05-23T13:47:46.438Z,23.31
2023-05-23T13:50:12.958Z,23.35
2023-05-23T13:52:42.925Z,23.70
2023-05-23T13:55:10.880Z,22.69
2023-05-23T13:57:37.383Z,23.08
2023-05-23T14:00:04.330Z,23.32
2023-05-23T14:02:32.106Z,22.31
2023-05-23T14:04:58.889Z,22.65
2023-05-23T14:07:25.659Z,22.96
2023-05-23T14:09:52.189Z,23.27
2023-05-23T14:12:18.697Z,21.27
2023-05-23T14:14:45.360Z,21.08
2023-05-23T14:17:16.072Z,21.33
2023-05-23T14:19:42.969Z,21.44
2023-05-23T14:22:10.019Z,22.38
2023-05-23T14:24:36.640Z,21.70
2023-05-23T14:27:03.724Z,21.50
2023-05-23T14:29:30.257Z,21.44
2023-05-23T14:31:56.846Z,22.25
2023-05-23T14:34:23.390Z,21.85
2023-05-23T14:36:50.285Z,21.70
2023-05-23T14:39:16.877Z,21.47
2023-05-23T14:41:43.512Z,21.01
2023-05-23T14:44:10.121Z,21.07
2023-05-23T14:46:37.555Z,20.23
2023-05-23T14:49:04.198Z,20.26
2023-05-23T14:51:44.747Z,20.37
2023-05-23T14:54:13.027Z,22.31
2023-05-23T14:56:41.157Z,21.89
2023-05-23T14:59:08.139Z,20.63
2023-05-23T15:01:35.354Z,20.31
2023-05-23T15:04:05.684Z,20.62
2023-05-23T15:06:32.323Z,20.62
2023-05-23T15:08:58.858Z,21.77
2023-05-23T15:11:27.413Z,22.15
2023-05-23T15:13:54.294Z,22.33
2023-05-23T15:16:20.937Z,22.87
2023-05-23T15:18:47.704Z,23.57
2023-05-23T15:21:14.438Z,20.84
2023-05-23T15:23:41.509Z,20.93
2023-05-23T15:26:08.379Z,21.64
2023-05-23T15:28:34.897Z,23.62
2023-05-23T15:31:01.404Z,22.40
2023-05-23T15:33:28.042Z,22.79
2023-05-23T15:35:54.933Z,23.56
2023-05-23T15:38:21.470Z,23.83
2023-05-23T15:40:49.084Z,23.40
2023-05-23T15:43:15.652Z,22.42
2023-05-23T15:45:42.481Z,23.04
2023-05-23T15:48:09.283Z,21.61
2023-05-23T15:50:35.902Z,21.16
2023-05-23T15:53:02.425Z,20.59
2023-05-23T15:55:29.067Z,20.23
2023-05-23T15:57:55.633Z,20.67
2023-05-23T16:00:22.230Z,20.94
2023-05-23T16:02:48.820Z,21.24
2023-05-23T16:05:15.344Z,20.35
2023-05-23T16:07:41.858Z,19.92
2023-05-23T16:10:08.698Z,19.97
2023-05-23T16:12:35.418Z,20.16
2023-05-23T16:15:01.948Z,21.40
2023-05-23T16:17:28.499Z,21.68
2023-05-23T16:19:55.094Z,20.62
2023-05-23T16:22:21.635Z,21.10
2023-05-23T16:24:48.187Z,20.16
2023-05-23T16:27:14.700Z,20.09
2023-05-23T16:29:41.242Z,19.78
2023-05-23T16:32:08.118Z,20.22
2023-05-23T16:34:35.277Z,20.35
2023-05-23T16:37:01.806Z,20.84
2023-05-23T16:39:28.694Z,20.30
2023-05-23T16:41:55.284Z,20.52
2023-05-23T16:44:21.894Z,19.68
2023-05-23T16:46:48.632Z,19.79
2023-05-23T16:49:15.246Z,19.80
2023-05-23T16:51:41.775Z,20.71
2023-05-23T16:54:08.922Z,20.53
2023-05-23T16:56:36.028Z,20.22
2023-05-23T16:59:02.531Z,20.22
2023-05-23T17:01:29.504Z,20.45
2023-05-23T17:03:56.778Z,19.70
2023-05-23T17:06:23.459Z,19.59
2023-05-23T17:08:50.042Z,19.48
2023-05-23T17:11:16.603Z,19.67
2023-05-23T17:13:44.309Z,19.23
2023-05-23T17:16:11.872Z,19.27
2023-05-23T17:18:38.514Z,19.15
2023-05-23T17:21:05.064Z,19.21
2023-05-23T17:23:31.622Z,18.90
2023-05-23T17:25:58.117Z,19.28
2023-05-23T17:28:24.649Z,18.98
2023-05-23T17:30:54.128Z,18.95
2023-05-23T17:33:20.634Z,19.11
2023-05-23T17:35:47.167Z,19.10
2023-05-23T17:38:14.321Z,18.59
2023-05-23T17:40:42.048Z,18.57
2023-05-23T17:43:09.103Z,18.46
2023-05-23T17:45:36.187Z,18.44
2023-05-23T17:48:03.561Z,18.54
2023-05-23T17:50:30.522Z,18.34
2023-05-23T17:52:57.337Z,18.30
2023-05-23T17:55:23.869Z,18.17
2023-05-23T17:57:50.531Z,18.04
2023-05-23T18:00:17.727Z,17.97
2023-05-23T18:02:44.342Z,17.84
2023-05-23T18:05:10.908Z,17.82
2023-05-23T18:07:37.938Z,17.85
2023-05-23T18:10:05.396Z,17.74
2023-05-23T18:12:32.332Z,17.50
2023-05-23T18:14:58.935Z,17.53
2023-05-23T18:17:25.669Z,17.39
2023-05-23T18:19:52.203Z,17.25
2023-05-23T18:22:19.888Z,17.19
2023-05-23T18:24:46.822Z,17.03
2023-05-23T18:27:13.357Z,16.94
2023-05-23T18:29:39.929Z,16.85
2023-05-23T18:32:06.548Z,16.84
2023-05-23T18:34:33.107Z,16.80
2023-05-23T18:36:59.674Z,16.73
2023-05-23T18:39:26.358Z,16.68
2023-05-23T18:41:52.854Z,16.58
2023-05-23T18:44:20.929Z,16.55
2023-05-23T18:46:47.844Z,16.44
2023-05-23T18:49:14.440Z,16.31
2023-05-23T18:51:42.228Z,16.27
2023-05-23T18:54:08.730Z,16.23
2023-05-23T18:56:35.671Z,16.14
2023-05-23T18:59:02.363Z,16.04
2023-05-23T19:01:28.998Z,16.03
2023-05-23T19:03:57.119Z,15.99
2023-05-23T19:06:23.956Z,15.90
2023-05-23T19:08:50.799Z,15.89
2023-05-23T19:11:17.336Z,15.84
2023-05-23T19:13:44.031Z,15.78
2023-05-23T19:16:10.644Z,15.74
2023-05-23T19:18:37.426Z,15.69
2023-05-23T19:21:04.080Z,15.60
2023-05-23T19:23:30.602Z,15.61
2023-05-23T19:25:57.107Z,15.55
2023-05-23T19:28:23.720Z,15.58
2023-05-23T19:30:50.323Z,15.51
2023-05-23T19:33:18.067Z,15.39
2023-05-23T19:35:44.911Z,15.47
2023-05-23T19:38:11.734Z,15.48
2023-05-23T19:40:38.377Z,15.44
2023-05-23T19:43:05.353Z,15.17
2023-05-23T19:45:31.846Z,15.34
2023-05-23T19:47:58.488Z,15.32
2023-05-23T19:50:25.252Z,15.22
2023-05-23T19:52:52.250Z,15.28
2023-05-23T19:55:18.835Z,15.20
2023-05-23T19:57:45.539Z,15.11
2023-05-23T20:00:14.703Z,15.30
2023-05-23T20:02:41.573Z,15.33
2023-05-23T20:05:08.527Z,15.34
2023-05-23T20:07:36.474Z,15.29
2023-05-23T20:10:03.487Z,15.24
2023-05-23T20:12:30.050Z,15.32
2023-05-23T20:14:57.479Z,15.33
2023-05-23T20:17:24.032Z,15.34
2023-05-23T20:19:50.682Z,15.29
2023-05-23T20:22:17.281Z,15.24
2023-05-23T20:24:43.830Z,15.20
2023-05-23T20:27:10.667Z,15.21
2023-05-23T20:29:37.523Z,15.21
2023-05-23T20:32:04.186Z,15.11
2023-05-23T20:34:31.792Z,15.10
2023-05-23T20:36:58.340Z,14.95
2023-05-23T20:39:24.906Z,14.86
2023-05-23T20:41:51.779Z,14.93
2023-05-23T20:44:18.396Z,14.78
2023-05-23T20:46:45.085Z,14.74
2023-05-23T20:49:11.734Z,14.68
2023-05-23T20:51:38.580Z,14.58
2023-05-23T20:54:05.642Z,14.57
2023-05-23T20:56:32.657Z,14.40
2023-05-23T20:59:01.974Z,14.44
2023-05-23T21:01:28.599Z,14.48
2023-05-23T21:03:55.571Z,14.43
2023-05-23T21:06:22.423Z,14.30
2023-05-23T21:08:48.999Z,14.24
2023-05-23T21:11:15.673Z,14.21
2023-05-23T21:13:42.270Z,14.10
2023-05-23T21:16:08.769Z,14.15
2023-05-23T21:18:35.317Z,14.05
2023-05-23T21:21:01.882Z,13.99
2023-05-23T21:23:28.419Z,14.02
2023-05-23T21:25:55.899Z,13.96
2023-05-23T21:28:22.478Z,13.91
2023-05-23T21:30:49.515Z,13.89
2023-05-23T21:33:16.201Z,13.86
2023-05-23T21:35:45.055Z,13.82
2023-05-23T21:38:11.582Z,13.85
2023-05-23T21:40:38.122Z,13.75
2023-05-23T21:43:04.623Z,13.75
2023-05-23T21:45:31.212Z,13.78
2023-05-23T21:47:57.824Z,13.70
2023-05-23T21:50:24.363Z,13.68
2023-05-23T21:52:50.924Z,13.67
2023-05-23T21:55:17.507Z,13.63
2023-05-23T21:57:44.046Z,13.57
2023-05-23T22:00:12.538Z,13.61
2023-05-23T22:02:39.793Z,13.63
2023-05-23T22:05:07.046Z,13.56
2023-05-23T22:07:33.600Z,13.55
2023-05-23T22:10:00.301Z,13.58
2023-05-23T22:12:26.894Z,13.54
2023-05-23T22:14:54.710Z,13.55
2023-05-23T22:17:22.737Z,13.61
2023-05-23T22:19:51.782Z,13.66
2023-05-23T22:22:18.955Z,13.59
2023-05-23T22:24:45.548Z,13.58
2023-05-23T22:27:12.293Z,13.62
2023-05-23T22:29:38.858Z,13.58
2023-05-23T22:32:05.550Z,13.53
2023-05-23T22:34:32.140Z,13.59
2023-05-23T22:37:00.264Z,13.60
2023-05-23T22:39:27.196Z,13.53
2023-05-23T22:41:53.903Z,13.67
2023-05-23T22:44:20.478Z,13.61
2023-05-23T22:46:47.120Z,13.48
2023-05-23T22:49:15.340Z,13.52
2023-05-23T22:51:42.064Z,13.53
2023-05-23T22:54:08.788Z,13.47
2023-05-23T22:56:35.493Z,13.36
2023-05-23T22:59:02.244Z,13.38
2023-05-23T23:01:29.939Z,13.38
2023-05-23T23:03:56.547Z,13.36
2023-05-23T23:06:23.042Z,13.29
2023-05-23T23:08:49.952Z,13.29
2023-05-23T23:11:16.581Z,13.27
2023-05-23T23:13:43.120Z,13.28
2023-05-23T23:16:09.789Z,13.31
2023-05-23T23:18:36.331Z,13.35
2023-05-23T23:21:02.890Z,13.29
2023-05-23T23:23:29.524Z,13.26
2023-05-23T23:25:56.124Z,13.34
2023-05-23T23:28:22.633Z,13.39
2023-05-23T23:30:49.210Z,13.39
2023-05-23T23:33:15.878Z,13.38
2023-05-23T23:35:45.350Z,13.32
2023-05-23T23:38:13.101Z,13.32
2023-05-23T23:40:39.707Z,13.40
2023-05-23T23:43:06.299Z,13.37
2023-05-23T23:45:32.886Z,13.48
2023-05-23T23:47:59.463Z,13.29
2023-05-23T23:50:26.800Z,13.34
2023-05-23T23:52:53.382Z,13.33
2023-05-23T23:55:19.968Z,13.31
2023-05-23T23:57:46.751Z,13.25
